createdAt,value
2019-01-23T00:02:00.000Z,992.992
2019-01-23T00:12:00.000Z,992.873
2019-01-23T00:22:00.000Z,992.82
2019-01-23T00:32:00.000Z,992.669
2019-01-23T00:42:00.000Z,992.536
2019-01-23T00:52:00.000Z,992.423
2019-01-23T01:02:01.000Z,992.397
2019-01-23T01:12:00.000Z,992.433
2019-01-23T01:22:00.000Z,992.376
2019-01-23T01:32:04.000Z,992.345
2019-01-23T01:42:00.000Z,992.283
2019-01-23T01:52:00.000Z,992.284
2019-01-23T02:02:00.000Z,992.223
2019-01-23T02:12:01.000Z,992.112
2019-01-23T02:22:01.000Z,992.12
2019-01-23T02:32:01.000Z,992.005
2019-01-23T02:42:01.000Z,991.923
2019-01-23T02:52:01.000Z,991.794
2019-01-23T03:02:01.000Z,991.766
2019-01-23T03:12:01.000Z,991.644
2019-01-23T03:22:01.000Z,991.579
2019-01-23T03:32:01.000Z,991.565
2019-01-23T03:42:01.000Z,991.565
2019-01-23T03:52:01.000Z,991.604
2019-01-23T04:02:01.000Z,991.572
2019-01-23T04:12:01.000Z,991.601
2019-01-23T04:22:01.000Z,991.533
2019-01-23T04:32:01.000Z,991.516
2019-01-23T04:42:01.000Z,991.563
2019-01-23T04:52:01.000Z,991.556
2019-01-23T05:02:01.000Z,991.573
2019-01-23T05:12:01.000Z,991.551
2019-01-23T05:22:01.000Z,991.537
2019-01-23T05:32:02.000Z,991.538
2019-01-23T05:52:01.000Z,991.584
2019-01-23T06:02:01.000Z,991.544
2019-01-23T06:12:01.000Z,991.586
2019-01-23T06:22:01.000Z,991.633
2019-01-23T06:32:01.000Z,991.632
2019-01-23T06:42:01.000Z,991.624
2019-01-23T06:52:01.000Z,991.71
2019-01-23T07:02:01.000Z,991.679
2019-01-23T07:12:01.000Z,991.68
2019-01-23T07:22:01.000Z,991.822
2019-01-23T07:32:01.000Z,991.767
2019-01-23T07:42:01.000Z,991.827
2019-01-23T07:52:01.000Z,991.824
2019-01-23T08:02:01.000Z,991.828
2019-01-23T08:12:01.000Z,991.861
2019-01-23T08:22:01.000Z,991.929
2019-01-23T08:32:01.000Z,991.895
2019-01-23T08:42:01.000Z,991.984
2019-01-23T08:52:01.000Z,991.992
2019-01-23T09:02:01.000Z,992.021
2019-01-23T09:12:01.000Z,992.087
2019-01-23T09:22:01.000Z,992.187
2019-01-23T09:32:01.000Z,992.26
2019-01-23T09:42:01.000Z,992.28
2019-01-23T09:52:01.000Z,992.346
2019-01-23T10:02:01.000Z,992.408
2019-01-23T10:12:01.000Z,992.473
2019-01-23T10:22:01.000Z,992.478
2019-01-23T10:32:01.000Z,992.478
2019-01-23T10:42:02.000Z,992.364
2019-01-23T10:52:02.000Z,992.344
2019-01-23T11:02:02.000Z,992.365
2019-01-23T11:12:02.000Z,992.416
2019-01-23T11:22:02.000Z,992.339
2019-01-23T11:32:02.000Z,992.381
2019-01-23T11:42:02.000Z,992.479
2019-01-23T11:52:02.000Z,992.532
2019-01-23T12:02:02.000Z,992.583
2019-01-23T12:12:02.000Z,992.586
2019-01-23T12:22:02.000Z,992.562
2019-01-23T12:32:02.000Z,992.5
2019-01-23T12:42:02.000Z,992.513
2019-01-23T12:52:02.000Z,992.519
2019-01-23T13:02:02.000Z,992.533
2019-01-23T13:12:02.000Z,992.638
2019-01-23T13:22:02.000Z,992.714
2019-01-23T13:32:02.000Z,992.784
2019-01-23T13:42:02.000Z,992.822
2019-01-23T13:52:02.000Z,992.842
2019-01-23T14:02:02.000Z,992.921
2019-01-23T14:22:02.000Z,993.251
2019-01-23T14:32:02.000Z,993.348
2019-01-23T14:42:02.000Z,993.411
2019-01-23T14:52:02.000Z,993.491
2019-01-23T15:02:02.000Z,993.563
2019-01-23T15:12:02.000Z,993.731
2019-01-23T15:22:02.000Z,993.823
2019-01-23T15:32:05.000Z,993.917
2019-01-23T15:42:02.000Z,994.078
2019-01-23T15:52:02.000Z,994.214
2019-01-23T16:02:02.000Z,994.481
2019-01-23T16:22:02.000Z,994.651
2019-01-23T16:32:02.000Z,994.81
2019-01-23T16:42:02.000Z,994.838
2019-01-23T16:52:02.000Z,994.989
2019-01-23T17:02:02.000Z,995.071
2019-01-23T17:12:02.000Z,995.153
2019-01-23T17:22:02.000Z,995.228
2019-01-23T17:32:03.000Z,995.383
2019-01-23T17:42:04.000Z,995.435
2019-01-23T17:52:02.000Z,995.485
2019-01-23T18:12:06.000Z,995.722
2019-01-23T18:22:05.000Z,995.897
2019-01-23T18:32:03.000Z,996.002
2019-01-23T18:42:03.000Z,996.07
2019-01-23T18:52:03.000Z,996.233
2019-01-23T19:02:03.000Z,996.347
2019-01-23T19:12:03.000Z,996.437
2019-01-23T19:22:03.000Z,996.442
2019-01-23T19:32:03.000Z,996.55
2019-01-23T19:42:03.000Z,996.558
2019-01-23T19:52:03.000Z,996.718
2019-01-23T20:02:03.000Z,996.795
2019-01-23T20:12:03.000Z,996.867
2019-01-23T20:32:03.000Z,997.004
2019-01-23T20:42:03.000Z,997.133
2019-01-23T20:52:03.000Z,997.314
2019-01-23T21:02:03.000Z,997.405
2019-01-23T21:12:03.000Z,997.398
2019-01-23T21:22:03.000Z,997.509
2019-01-23T21:32:03.000Z,997.515
2019-01-23T21:42:03.000Z,997.56
2019-01-23T21:52:03.000Z,997.615
2019-01-23T22:02:03.000Z,997.712
2019-01-23T22:12:03.000Z,997.823
2019-01-23T22:22:03.000Z,997.833
2019-01-23T22:32:03.000Z,997.955
2019-01-23T22:42:05.000Z,998.068
2019-01-23T22:52:03.000Z,998.237
2019-01-23T23:02:04.000Z,998.368
2019-01-23T23:12:03.000Z,998.459
2019-01-23T23:22:03.000Z,998.686
2019-01-23T23:32:03.000Z,998.786
2019-01-23T23:42:03.000Z,998.937
